Ganserndorf, Austria
Current Conditions -  °F | °C
As of 3:50 AM on Wednesday 22 Oct 2014 (Local Time) from LOWW Reporting Station
Broken Clouds Broken Clouds  
Wind Chill: 52°   Ceiling: 9000
Heat Index: 52°   Visibility: 6mi
Dew Point: 41°   Wind: 29mph
Humidity: 67%   Direction: 290°WNW
Pressure: 29.68"   Gusts: 43mph
Location:  48.34°N, 16.72°E
Report Text: LOWW 220150Z 29025G37KT 9999 SCT030 SCT080 BKN090 11/05 Q1005 NOSIG
Loading
Personal Weather Stations






























Interactive Weather Map
Tropical Storm Tracking
New forecast layout! Learn more

10-Day Weather Forecast

Advertisements
Track Severe Weather on mobile